Flight Track Log - Related Links

Times and Time Zones

All times are in EDT time to prevent confusion due to time zone crossing. See the N71AA flight status page for this flight to view local times or setup timezone preferences in your user account.

Time Position Orientation Groundspeed Altitude Reporting Facility
EDT Latitude Longitude Course Direction KTS MPH feet Rate Location/Type
Thu 05:02:18 PM 47.5111 -122.2850 154° Southeast 155 178 1,100  Level Seattle Center
Thu 05:03:32 PM 47.4619 -122.2497 154° Southeast 176 203 3,700 1,867 Climbing Seattle Center
Thu 05:04:33 PM 47.4139 -122.2172 155° Southeast 194 223 5,300 1,438 Climbing Seattle Center
Thu 05:05:33 PM 47.3456 -122.2028 172° South 237 273 6,600 893 Climbing Seattle Center
Thu 05:06:34 PM 47.2858 -122.2389 202° Southwest 261 300 7,100 188 Climbing Seattle Center
Thu 05:07:41 PM 47.2456 -122.3428 240° Southwest 279 321 7,000 -47 Descending Seattle Center
Thu 05:08:42 PM 47.2456 -122.4472 270° West 268 308 7,000  Level Seattle Center
Thu 05:09:43 PM 47.2861 -122.5294 306° West 246 283 7,000 541 Level Seattle Center
Thu 05:10:44 PM 47.3339 -122.6044 313° West 223 257 8,100 1,208 Climbing Seattle Center
Thu 05:12:07 PM 47.3942 -122.6969 314° West 229 264 9,900 1,241 Climbing Seattle Center
Thu 05:13:09 PM 47.4386 -122.7661 314° West 232 267 11,100 1,366 Climbing Seattle Center
Thu 05:14:10 PM 47.4811 -122.8347 313° West 227 261 12,700 1,525 Climbing Seattle Center
Thu 05:15:11 PM 47.5214 -122.8989 313° West 217 250 14,200 1,377 Climbing Seattle Center
Thu 05:16:12 PM 47.5625 -122.9644 313° West 217 250 15,500 1,279 Climbing Seattle Center
Thu 05:17:13 PM 47.6042 -123.0303 313° West 223 257 16,800 1,230 Climbing Seattle Center
Thu 05:18:14 PM 47.6450 -123.0967 312° West 220 253 18,000 1,171 Climbing Seattle Center
Thu 05:19:16 PM 47.6864 -123.1633 313° West 221 254 19,200 1,122 Climbing Seattle Center
Thu 05:20:17 PM 47.7286 -123.2317 313° West 226 260 20,300 1,033 Climbing Seattle Center
Thu 05:21:18 PM 47.7806 -123.3147 313° West 230 265 21,300 836 Climbing Seattle Center
Thu 05:22:19 PM 47.8250 -123.3861 313° West 236 272 22,000 344 Climbing Seattle Center
Thu 05:23:20 PM 47.8731 -123.4639 313° West 250 288 22,000  Level Seattle Center
Thu 05:24:22 PM 47.9369 -123.5272 326° Northwest 274 315 22,000  Level Seattle Center
Thu 05:25:23 PM 48.0017 -123.5897 327° Northwest 280 322 22,000  Level Seattle Center
Thu 05:26:24 PM 48.0675 -123.6528 327° Northwest 281 323 22,000  Level Seattle Center
Thu 05:27:25 PM 48.1336 -123.7128 329° Northwest 279 321 22,000  Level Seattle Center
Thu 05:28:26 PM 48.1986 -123.7753 327° Northwest 280 322 22,000  Level Seattle Center
Thu 05:29:27 PM 48.2642 -123.8356 329° Northwest 278 320 22,000 33 Level Seattle Center
Thu 05:31:29 PM 48.3833 -123.9833 321° Northwest 280 322 22,100 33 Climbing Vancouver Center
Thu 05:32:29 PM 48.4500 -124.0333 334° Northwest 270 311 22,100 -50 Level Vancouver Center
Thu 05:33:29 PM 48.5167 -124.1000 326° Northwest 280 322 22,000 -50 Descending Vancouver Center
Thu 05:34:29 PM 48.5833 -124.1500 334° Northwest 280 322 22,000  Level Vancouver Center
Thu 05:35:29 PM 48.6500 -124.2333 320° Northwest 270 311 22,000  Level Vancouver Center
Thu 05:36:29 PM 48.7000 -124.2833 327° Northwest 270 311 22,000  Level Vancouver Center
Thu 05:37:29 PM 48.7667 -124.3333 334° Northwest 270 311 22,000 50 Level Vancouver Center
Thu 05:38:29 PM 48.8333 -124.4000 327° Northwest 270 311 22,100 50 Climbing Vancouver Center
Thu 05:39:29 PM 48.9000 -124.4667 327° Northwest 270 311 22,100  Level Vancouver Center
Thu 05:40:29 PM 48.9667 -124.5333 327° Northwest 270 311 22,100  Level Vancouver Center
Thu 05:41:29 PM 49.0333 -124.5833 334° Northwest 270 311 22,100  Level Vancouver Center
Thu 05:42:29 PM 49.0833 -124.6667 313° West 270 311 22,100  Level Vancouver Center
Thu 05:43:29 PM 49.1500 -124.7167 334° Northwest 270 311 22,100  Level Vancouver Center
Thu 05:44:29 PM 49.2167 -124.8000 321° Northwest 270 311 22,100  Level Vancouver Center
Thu 05:45:29 PM 49.2833 -124.8500 334° Northwest 270 311 22,100  Level Vancouver Center
Thu 05:46:29 PM 49.3500 -124.9000 334° Northwest 270 311 22,100  Level Vancouver Center
Thu 05:47:29 PM 49.4167 -124.9833 321° Northwest 270 311 22,100  Level Vancouver Center
Thu 05:48:29 PM 49.4833 -125.0333 334° Northwest 270 311 22,100 -50 Level Vancouver Center
Thu 05:49:29 PM 49.5333 -125.1167 313° West 270 311 22,000 -50 Descending Vancouver Center
Thu 05:50:29 PM 49.6000 -125.1667 334° Northwest 270 311 22,000  Level Vancouver Center
Thu 05:51:28 PM 49.6667 -125.2167 334° Northwest 270 311 22,000  Level Vancouver Center
Thu 05:52:28 PM 49.7167 -125.3000 313° West 260 299 22,000  Level Vancouver Center
Thu 05:53:28 PM 49.7833 -125.3500 334° Northwest 270 311 22,000  Level Vancouver Center
Thu 05:54:28 PM 49.8500 -125.4333 321° Northwest 260 299 22,000  Level Vancouver Center
Thu 05:55:28 PM 49.9167 -125.4833 334° Northwest 260 299 22,000  Level Vancouver Center
Thu 05:56:28 PM 49.9667 -125.5333 327° Northwest 270 311 22,000  Level Vancouver Center
Thu 05:57:28 PM 50.0333 -125.6167 321° Northwest 260 299 22,000  Level Vancouver Center
Thu 05:58:28 PM 50.1000 -125.6667 334° Northwest 270 311 22,000  Level Vancouver Center
Thu 05:59:28 PM 50.1500 -125.7333 320° Northwest 270 311 22,000  Level Vancouver Center
Thu 06:00:28 PM 50.2167 -125.8000 327° Northwest 270 311 22,000  Level Vancouver Center
Thu 06:01:28 PM 50.2667 -125.8667 320° Northwest 270 311 22,000  Level Vancouver Center
Thu 06:02:28 PM 50.3333 -125.9500 321° Northwest 270 311 22,000  Level Vancouver Center
Thu 06:03:28 PM 50.4000 -126.0000 334° Northwest 270 311 22,000  Level Vancouver Center
Thu 06:04:28 PM 50.4667 -126.0500 334° Northwest 270 311 22,000  Level Vancouver Center
Thu 06:05:28 PM 50.5167 -126.1333 313° West 270 311 22,000  Level Vancouver Center
Thu 06:06:28 PM 50.5833 -126.1833 335° Northwest 270 311 22,000  Level Vancouver Center
Thu 06:07:28 PM 50.6500 -126.2500 328° Northwest 270 311 22,000  Level Vancouver Center
Thu 06:08:28 PM 50.7167 -126.3333 322° Northwest 270 311 22,000  Level Vancouver Center
Thu 06:09:28 PM 50.7833 -126.3833 335° Northwest 270 311 22,000  Level Vancouver Center
Thu 06:10:28 PM 50.8500 -126.4667 322° Northwest 270 311 22,000  Level Vancouver Center
Thu 06:11:28 PM 50.9000 -126.5333 320° Northwest 270 311 22,000  Level Vancouver Center
Thu 06:12:28 PM 50.9667 -126.5833 335° Northwest 270 311 22,000  Level Vancouver Center
Thu 06:13:28 PM 51.0167 -126.6667 314° West 270 311 22,000  Level Vancouver Center
Thu 06:14:28 PM 51.0667 -126.7167 328° Northwest 270 311 22,000  Level Vancouver Center
Thu 06:15:28 PM 51.1333 -126.8000 322° Northwest 270 311 22,000  Level Vancouver Center
Thu 06:16:28 PM 51.2000 -126.8667 328° Northwest 270 311 22,000  Level Vancouver Center
Thu 06:17:28 PM 51.2667 -126.9167 335° Northwest 270 311 22,000  Level Vancouver Center
Thu 06:18:28 PM 51.3333 -127.0000 322° Northwest 270 311 22,000  Level Vancouver Center
Thu 06:19:28 PM 51.3833 -127.0667 320° Northwest 270 311 22,000  Level Vancouver Center
Thu 06:20:28 PM 51.4500 -127.1167 335° Northwest 270 311 22,000  Level Vancouver Center
Thu 06:21:28 PM 51.5167 -127.2000 322° Northwest 270 311 22,000  Level Vancouver Center
Thu 06:22:28 PM 51.5833 -127.2667 328° Northwest 270 311 22,000  Level Vancouver Center
Thu 06:23:28 PM 51.6333 -127.3500 314° West 270 311 22,000  Level Vancouver Center
Thu 06:24:28 PM 51.6833 -127.4000 328° Northwest 270 311 22,000  Level Vancouver Center
Thu 06:25:28 PM 51.7500 -127.4667 328° Northwest 270 311 22,000  Level Vancouver Center
Thu 06:26:28 PM 51.8167 -127.5500 322° Northwest 270 311 22,000  Level Vancouver Center
Thu 06:27:28 PM 51.8667 -127.6167 321° Northwest 270 311 22,000  Level Vancouver Center
Thu 06:28:28 PM 51.9333 -127.6667 335° Northwest 270 311 22,000  Level Vancouver Center
Thu 06:29:28 PM 52.0000 -127.7500 322° Northwest 270 311 22,000  Level Vancouver Center
Thu 06:30:28 PM 52.0667 -127.8167 328° Northwest 270 311 22,000  Level Vancouver Center
Thu 06:31:28 PM 52.1167 -127.9000 314° West 270 311 22,000  Level Vancouver Center
Thu 06:32:28 PM 52.1833 -127.9667 328° Northwest 270 311 22,000  Level Vancouver Center
Thu 06:33:28 PM 52.2333 -128.0167 329° Northwest 270 311 22,000  Level Vancouver Center
Thu 06:34:28 PM 52.3000 -128.1167 317° Northwest 270 311 22,000  Level Vancouver Center
Thu 06:35:28 PM 52.3667 -128.1667 335° Northwest 270 311 22,000  Level Vancouver Center
Thu 06:36:28 PM 52.4333 -128.2667 318° Northwest 270 311 22,000  Level Vancouver Center
Thu 06:37:28 PM 52.5000 -128.3167 335° Northwest 270 311 22,000  Level Vancouver Center
Thu 06:38:28 PM 52.5333 -128.3833 309° West 270 311 22,000  Level Vancouver Center
Thu 06:39:28 PM 52.6000 -128.4667 323° Northwest 270 311 22,000  Level Vancouver Center
Thu 06:40:28 PM 52.6667 -128.5333 329° Northwest 270 311 22,000  Level Vancouver Center
Thu 06:42:00 PM 52.7667 -128.6333 329° Northwest 280 322 22,000  Level Anchorage Center
Thu 06:43:00 PM 52.8167 -128.7000 321° Northwest 270 311 22,000  Level Anchorage Center
Thu 06:44:00 PM 52.8833 -128.7667 329° Northwest 270 311 22,000  Level Anchorage Center
Thu 06:45:00 PM 52.9500 -128.8500 323° Northwest 270 311 22,000  Level Anchorage Center
Thu 06:46:00 PM 53.0000 -128.9167 321° Northwest 280 322 22,000  Level Anchorage Center
Thu 06:47:00 PM 53.0667 -129.0000 323° Northwest 270 311 22,000  Level Anchorage Center
Thu 06:48:01 PM 53.1333 -129.0667 329° Northwest 270 311 22,000  Level Anchorage Center
Thu 06:49:00 PM 53.1833 -129.1500 315° West 270 311 22,000  Level Anchorage Center
Thu 06:50:01 PM 53.2500 -129.2167 329° Northwest 270 311 22,000  Level Anchorage Center
Thu 06:51:01 PM 53.3167 -129.3000 323° Northwest 270 311 22,000  Level Anchorage Center
Thu 06:52:01 PM 53.3667 -129.3667 322° Northwest 270 311 22,000  Level Anchorage Center
Thu 06:53:01 PM 53.4333 -129.4500 323° Northwest 280 322 22,000  Level Anchorage Center
Thu 06:54:01 PM 53.4833 -129.5167 322° Northwest 270 311 22,000  Level Anchorage Center
Thu 06:55:01 PM 53.5500 -129.6000 323° Northwest 270 311 22,000  Level Anchorage Center
Thu 06:56:02 PM 53.6167 -129.6667 329° Northwest 270 311 22,000  Level Anchorage Center
Thu 06:57:01 PM 53.6667 -129.7500 315° West 270 311 22,000  Level Anchorage Center
Thu 06:58:02 PM 53.7333 -129.8167 329° Northwest 270 311 22,000  Level Anchorage Center
Thu 06:59:02 PM 53.8000 -129.9000 324° Northwest 270 311 22,000  Level Anchorage Center
Thu 07:00:02 PM 53.8500 -129.9667 322° Northwest 270 311 22,000  Level Anchorage Center
Thu 07:01:02 PM 53.9167 -130.0500 324° Northwest 270 311 22,000  Level Anchorage Center
Thu 07:02:02 PM 53.9667 -130.1333 316° Northwest 270 311 22,000  Level Anchorage Center
Thu 07:03:28 PM 54.0667 -130.2833 319° Northwest 270 311 22,000  Level Vancouver Center
Thu 07:04:28 PM 54.1167 -130.3500 322° Northwest 270 311 22,000  Level Vancouver Center
Thu 07:05:28 PM 54.1667 -130.4167 322° Northwest 270 311 22,000  Level Vancouver Center
Thu 07:06:28 PM 54.2333 -130.5167 319° Northwest 270 311 22,000  Level Vancouver Center
Thu 07:07:28 PM 54.3000 -130.5833 330° Northwest 270 311 22,000  Level Vancouver Center
Thu 07:08:28 PM 54.3500 -130.6667 316° Northwest 270 311 22,000  Level Vancouver Center
Thu 07:09:28 PM 54.4000 -130.7333 322° Northwest 270 311 22,000  Level Vancouver Center
Thu 07:10:28 PM 54.4667 -130.8333 319° Northwest 270 311 22,000  Level Vancouver Center
Thu 07:11:28 PM 54.5333 -130.9000 330° Northwest 270 311 22,000 -250 Level Vancouver Center
Thu 07:12:28 PM 54.5833 -130.9667 322° Northwest 270 311 21,500 -850 Descending Vancouver Center
Thu 07:13:28 PM 54.6500 -131.0667 319° Northwest 290 334 20,300 -1,125 Descending Vancouver Center
Thu 07:14:04 PM 54.6833 -131.0667 360° North 290 334 19,700 -1,250 Descending Anchorage Center
Thu 07:15:04 PM 54.7500 -131.1667 319° Northwest 290 334 18,300 -1,400 Descending Anchorage Center
Thu 07:16:04 PM 54.8000 -131.2333 322° Northwest 270 311 16,900 -1,500 Descending Anchorage Center
Thu 07:17:04 PM 54.8667 -131.3167 324° Northwest 270 311 15,300 -1,633 Descending Anchorage Center
Thu 07:19:04 PM 54.9833 -131.4833 321° Northwest 270 311 12,000 -1,500 Descending Anchorage Center
Thu 07:20:28 PM 55.0667 -131.6500 311° West 270 311 10,200 -1,300 Descending Vancouver Center
Thu 07:21:04 PM 55.1000 -131.6167 30° Northeast 270 311 9,400 -1,188 Descending Anchorage Center
Thu 07:22:04 PM 55.1667 -131.6833 330° Northwest 270 311 8,300 -1,000 Descending Anchorage Center
Thu 07:23:04 PM 55.2333 -131.7333 337° Northwest 260 299 7,400 -793 Descending Anchorage Center
Thu 07:24:05 PM 55.3000 -131.7833 337° Northwest 250 288 6,700 -650 Descending Anchorage Center
Thu 07:25:04 PM 55.3667 -131.8500 330° Northwest 250 288 6,100 -350 Descending Anchorage Center
Thu 07:26:05 PM 55.4167 -131.9000 330° Northwest 230 265 6,000 -50 Descending Anchorage Center
Thu 07:27:05 PM 55.4667 -131.9500 330° Northwest 200 230 6,000 -150 Level Anchorage Center
Thu 07:28:05 PM 55.5000 -131.9833 330° Northwest 170 196 5,700 -300 Descending Anchorage Center
Thu 07:30:00 PM 55.4251 -131.8414 133° Southeast  Level FlightAware Approximate
Thu 07:37:00 PM 55.3541 -131.7112 119° Southeast  Level Estimated
Thu 07:38:00 PM 55.3541 -131.7112 119° Southeast  Level Estimated
Thu 07:39:00 PM 55.3541 -131.7112 119° Southeast  Level Estimated
Thu 07:40:00 PM 55.3541 -131.7112 119° Southeast  Level Estimated
Thu 07:41:00 PM 55.3541 -131.7112 119° Southeast  Level Estimated
Thu 07:42:00 PM 55.3541 -131.7112 119° Southeast  Level Estimated

Login

Don't have an account? Register now (free) for customized features, flight alerts, and more!